createdAt,value
2023-03-29T00:00:12.655Z,39.77
2023-03-29T00:02:40.991Z,38.92
2023-03-29T00:05:10.602Z,39.12
2023-03-29T00:07:38.492Z,39.93
2023-03-29T00:10:07.646Z,39.39
2023-03-29T00:12:35.569Z,39.66
2023-03-29T00:15:03.906Z,39.03
2023-03-29T00:17:33.948Z,39.04
2023-03-29T00:20:01.844Z,39.60
2023-03-29T00:22:29.779Z,40.82
2023-03-29T00:24:57.660Z,40.41
2023-03-29T00:27:25.819Z,40.73
2023-03-29T00:29:53.706Z,41.90
2023-03-29T00:32:21.890Z,41.35
2023-03-29T00:34:51.802Z,39.55
2023-03-29T00:37:19.982Z,39.67
2023-03-29T00:39:48.317Z,41.86
2023-03-29T00:42:18.677Z,41.21
2023-03-29T00:45:02.010Z,40.97
2023-03-29T00:47:33.859Z,40.60
2023-03-29T00:50:09.856Z,39.14
2023-03-29T00:52:39.629Z,38.69
2023-03-29T00:55:12.311Z,38.79
2023-03-29T00:57:43.368Z,40.33
2023-03-29T01:00:14.706Z,40.07
2023-03-29T01:02:44.607Z,41.88
2023-03-29T01:05:18.645Z,40.69
2023-03-29T01:07:53.813Z,43.01
2023-03-29T01:10:26.793Z,40.85
2023-03-29T01:13:01.166Z,40.87
2023-03-29T01:15:29.931Z,42.35
2023-03-29T01:17:58.482Z,41.75
2023-03-29T01:20:43.433Z,41.59
2023-03-29T01:23:38.236Z,41.75
2023-03-29T01:26:16.081Z,41.35
2023-03-29T01:28:50.683Z,42.43
2023-03-29T01:31:25.649Z,41.02
2023-03-29T01:34:00.080Z,40.01
2023-03-29T01:36:35.054Z,40.71
2023-03-29T01:39:07.116Z,41.11
2023-03-29T01:41:41.309Z,38.76
2023-03-29T01:44:18.458Z,39.69
2023-03-29T01:46:48.216Z,40.85
2023-03-29T01:49:23.171Z,38.31
2023-03-29T01:51:57.250Z,38.97
2023-03-29T01:54:29.463Z,38.98
2023-03-29T01:56:59.534Z,36.53
2023-03-29T01:59:34.478Z,36.06
2023-03-29T02:02:05.558Z,36.53
2023-03-29T02:04:38.332Z,38.95
2023-03-29T02:07:09.757Z,38.00
2023-03-29T02:09:38.656Z,37.44
2023-03-29T02:12:09.376Z,39.08
2023-03-29T02:14:39.009Z,38.75
2023-03-29T02:17:21.496Z,39.38
2023-03-29T02:19:53.544Z,37.83
2023-03-29T02:22:27.772Z,39.11
2023-03-29T02:24:59.398Z,41.13
2023-03-29T02:27:29.170Z,42.28
2023-03-29T02:29:59.244Z,45.09
2023-03-29T02:32:34.701Z,44.53
2023-03-29T02:35:08.513Z,40.67
2023-03-29T02:37:37.309Z,43.00
2023-03-29T02:40:12.596Z,45.93
2023-03-29T02:42:41.131Z,46.52
2023-03-29T02:45:14.157Z,47.65
2023-03-29T02:47:46.684Z,47.51
2023-03-29T02:50:14.881Z,48.96
2023-03-29T02:52:52.331Z,47.66
2023-03-29T02:55:22.605Z,49.25
2023-03-29T02:57:50.510Z,49.32
2023-03-29T03:00:23.194Z,48.78
2023-03-29T03:02:52.236Z,48.50
2023-03-29T03:05:20.377Z,47.57
2023-03-29T03:07:48.287Z,46.86
2023-03-29T03:10:16.295Z,47.78
2023-03-29T03:12:44.178Z,47.13
2023-03-29T03:15:13.520Z,45.74
2023-03-29T03:17:42.919Z,45.81
2023-03-29T03:20:13.914Z,42.51
2023-03-29T03:22:43.231Z,43.50
2023-03-29T03:25:13.691Z,44.36
2023-03-29T03:27:42.121Z,43.54
2023-03-29T03:30:11.551Z,42.54
2023-03-29T03:32:39.492Z,43.30
2023-03-29T03:35:10.036Z,44.73
2023-03-29T03:37:38.389Z,42.34
2023-03-29T03:40:11.997Z,42.28
2023-03-29T03:42:40.376Z,43.06
2023-03-29T03:45:10.679Z,42.70
2023-03-29T03:47:39.033Z,43.06
2023-03-29T03:50:09.926Z,44.05
2023-03-29T03:52:37.904Z,43.81
2023-03-29T03:55:06.513Z,44.70
2023-03-29T03:57:37.458Z,44.33
2023-03-29T04:00:19.466Z,44.06
2023-03-29T04:02:49.535Z,44.57
2023-03-29T04:05:20.046Z,44.68
2023-03-29T04:07:48.302Z,43.50
2023-03-29T04:10:16.567Z,44.13
2023-03-29T04:12:44.514Z,44.98
2023-03-29T04:15:12.441Z,43.53
2023-03-29T04:17:40.569Z,44.55
2023-03-29T04:20:12.455Z,45.56
2023-03-29T04:22:42.263Z,45.34
2023-03-29T04:25:11.834Z,44.86
2023-03-29T04:27:40.011Z,45.20
2023-03-29T04:30:09.591Z,45.38
2023-03-29T04:32:37.853Z,44.64
2023-03-29T04:35:06.681Z,45.31
2023-03-29T04:37:34.913Z,44.44
2023-03-29T04:40:08.443Z,43.98
2023-03-29T04:42:36.405Z,44.29
2023-03-29T04:45:04.502Z,42.97
2023-03-29T04:47:32.801Z,44.77
2023-03-29T04:50:00.771Z,43.69
2023-03-29T04:52:33.110Z,44.67
2023-03-29T04:55:01.094Z,44.18
2023-03-29T04:57:30.418Z,44.19
2023-03-29T04:59:58.453Z,43.74
2023-03-29T05:02:26.374Z,44.68
2023-03-29T05:04:54.265Z,44.71
2023-03-29T05:07:22.526Z,44.02
2023-03-29T05:09:50.425Z,44.67
2023-03-29T05:12:18.365Z,44.95
2023-03-29T05:14:47.673Z,45.59
2023-03-29T05:17:15.568Z,45.47
2023-03-29T05:19:43.568Z,45.38
2023-03-29T05:22:11.496Z,44.68
2023-03-29T05:24:39.412Z,46.06
2023-03-29T05:27:07.327Z,45.89
2023-03-29T05:29:35.218Z,45.06
2023-03-29T05:32:04.976Z,45.32
2023-03-29T05:34:32.933Z,45.73
2023-03-29T05:37:01.618Z,45.82
2023-03-29T05:39:30.045Z,45.87
2023-03-29T05:41:57.917Z,45.40
2023-03-29T05:44:25.893Z,46.75
2023-03-29T05:46:53.883Z,46.65
2023-03-29T05:49:23.132Z,45.10
2023-03-29T05:51:52.087Z,45.98
2023-03-29T05:54:19.997Z,44.91
2023-03-29T05:56:47.926Z,45.40
2023-03-29T05:59:17.679Z,44.25
2023-03-29T06:01:47.073Z,45.58
2023-03-29T06:04:15.176Z,45.65
2023-03-29T06:06:44.605Z,43.65
2023-03-29T06:09:12.517Z,45.09
2023-03-29T06:11:40.828Z,45.51
2023-03-29T06:14:08.820Z,44.38
2023-03-29T06:16:38.094Z,45.15
2023-03-29T06:19:07.401Z,44.82
2023-03-29T06:21:35.767Z,45.42
2023-03-29T06:24:05.745Z,44.76
2023-03-29T06:26:33.816Z,44.14
2023-03-29T06:29:01.692Z,44.05
2023-03-29T06:31:30.186Z,45.21
2023-03-29T06:33:58.819Z,45.68
2023-03-29T06:36:27.003Z,44.63
2023-03-29T06:38:55.544Z,44.61
2023-03-29T06:41:24.901Z,43.40
2023-03-29T06:43:53.639Z,44.11
2023-03-29T06:46:21.703Z,44.55
2023-03-29T06:48:49.599Z,43.52
2023-03-29T06:51:17.566Z,43.91
2023-03-29T06:53:45.487Z,43.46
2023-03-29T06:56:13.468Z,43.86
2023-03-29T06:58:42.860Z,45.57
2023-03-29T07:01:11.678Z,44.90
2023-03-29T07:03:40.044Z,45.40
2023-03-29T07:06:11.765Z,46.07
2023-03-29T07:08:43.804Z,44.89
2023-03-29T07:11:13.838Z,46.50
2023-03-29T07:13:44.020Z,45.63
2023-03-29T07:16:13.871Z,44.92
2023-03-29T07:18:43.094Z,44.87
2023-03-29T07:21:12.650Z,45.74
2023-03-29T07:23:41.052Z,45.96
2023-03-29T07:26:09.539Z,45.66
2023-03-29T07:28:39.429Z,45.97
2023-03-29T07:31:12.019Z,47.65
2023-03-29T07:33:40.890Z,48.65
2023-03-29T07:36:09.689Z,49.42
2023-03-29T07:38:38.591Z,49.88
2023-03-29T07:41:08.053Z,50.66
2023-03-29T07:43:36.686Z,50.72
2023-03-29T07:46:06.799Z,50.50
2023-03-29T07:48:37.127Z,51.98
2023-03-29T07:51:06.198Z,53.16
2023-03-29T07:53:34.217Z,52.96
2023-03-29T07:56:02.126Z,53.60
2023-03-29T07:58:30.638Z,53.54
2023-03-29T08:01:01.338Z,54.55
2023-03-29T08:03:29.584Z,54.78
2023-03-29T08:06:02.435Z,54.14
2023-03-29T08:08:30.330Z,57.08
2023-03-29T08:10:58.548Z,56.81
2023-03-29T08:13:26.597Z,56.98
2023-03-29T08:15:54.470Z,56.17
2023-03-29T08:18:22.443Z,56.72
2023-03-29T08:20:52.705Z,55.87
2023-03-29T08:23:22.018Z,55.80
2023-03-29T08:25:49.854Z,55.84
2023-03-29T08:28:18.011Z,54.77
2023-03-29T08:30:46.838Z,54.62
2023-03-29T08:33:15.602Z,54.05
2023-03-29T08:35:43.797Z,54.23
2023-03-29T08:38:12.649Z,54.20
2023-03-29T08:40:42.074Z,52.75
2023-03-29T08:43:32.575Z,54.04
2023-03-29T08:46:10.288Z,53.04
2023-03-29T08:48:42.358Z,53.23
2023-03-29T08:51:21.579Z,53.87
2023-03-29T08:53:53.701Z,55.16
2023-03-29T08:56:27.567Z,54.88
2023-03-29T08:58:57.356Z,53.67
2023-03-29T09:01:26.650Z,53.96
2023-03-29T09:04:04.982Z,56.29
2023-03-29T09:06:33.044Z,55.00
2023-03-29T09:09:02.436Z,50.12
2023-03-29T09:11:48.004Z,51.80
2023-03-29T09:14:30.009Z,49.30
2023-03-29T09:17:02.738Z,55.02
2023-03-29T09:19:38.834Z,51.58
2023-03-29T09:22:17.028Z,45.28
2023-03-29T09:25:01.594Z,54.49
2023-03-29T09:27:36.349Z,53.21
2023-03-29T09:30:15.332Z,54.54
2023-03-29T09:32:50.951Z,50.49
2023-03-29T09:35:24.010Z,44.29
2023-03-29T09:37:54.286Z,46.13
2023-03-29T09:40:27.836Z,45.40
2023-03-29T09:42:58.523Z,44.43
2023-03-29T09:45:26.506Z,44.07
2023-03-29T09:47:58.890Z,44.53
2023-03-29T09:50:34.103Z,42.04
2023-03-29T09:53:02.633Z,43.16
2023-03-29T09:55:33.984Z,41.96
2023-03-29T09:58:12.401Z,42.48
2023-03-29T10:00:41.092Z,42.10
2023-03-29T10:03:10.745Z,40.99
2023-03-29T10:05:40.133Z,41.75
2023-03-29T10:08:22.462Z,42.87
2023-03-29T10:10:51.031Z,42.44
2023-03-29T10:13:23.825Z,41.36
2023-03-29T10:15:59.501Z,41.20
2023-03-29T10:18:28.228Z,40.46
2023-03-29T10:21:01.289Z,40.23
2023-03-29T10:23:33.463Z,38.92
2023-03-29T10:26:04.756Z,39.18
2023-03-29T10:28:36.413Z,39.33
2023-03-29T10:31:08.191Z,38.85
2023-03-29T10:33:37.701Z,39.81
2023-03-29T10:36:08.564Z,39.45
2023-03-29T10:38:38.417Z,39.27
2023-03-29T10:41:10.193Z,37.99
2023-03-29T10:43:44.534Z,38.47
2023-03-29T10:46:20.044Z,38.36
2023-03-29T10:48:52.860Z,39.17
2023-03-29T10:51:21.334Z,37.79
2023-03-29T10:53:49.308Z,39.62
2023-03-29T10:56:34.096Z,38.76
2023-03-29T10:59:28.595Z,38.40
2023-03-29T11:02:40.855Z,38.83
2023-03-29T11:05:25.579Z,38.16
2023-03-29T11:08:17.928Z,37.84
2023-03-29T11:10:55.135Z,38.54
2023-03-29T11:13:32.592Z,37.33
2023-03-29T11:16:13.360Z,38.71
2023-03-29T11:19:10.059Z,36.90
2023-03-29T11:21:43.331Z,36.45
2023-03-29T11:24:29.135Z,38.00
2023-03-29T11:27:10.976Z,37.07
2023-03-29T11:29:50.636Z,38.47
2023-03-29T11:32:30.280Z,39.57
2023-03-29T11:35:09.225Z,37.51
2023-03-29T11:37:43.255Z,37.06
2023-03-29T11:40:31.720Z,38.31
2023-03-29T11:43:02.453Z,37.41
2023-03-29T11:45:35.612Z,39.39
2023-03-29T11:48:08.734Z,38.14
2023-03-29T11:50:45.825Z,39.12
2023-03-29T11:53:18.891Z,39.66
2023-03-29T11:55:48.407Z,38.22
2023-03-29T11:58:19.859Z,39.85
2023-03-29T12:00:50.637Z,38.58
2023-03-29T12:03:29.974Z,38.56
2023-03-29T12:06:05.023Z,38.43
2023-03-29T12:08:36.264Z,38.91
2023-03-29T12:11:11.877Z,36.87
2023-03-29T12:13:44.097Z,37.48
2023-03-29T12:16:18.639Z,37.23
2023-03-29T12:18:50.640Z,38.23
2023-03-29T12:21:22.438Z,38.17
2023-03-29T12:23:52.032Z,38.62
2023-03-29T12:26:35.384Z,38.56
2023-03-29T12:29:29.710Z,38.47
2023-03-29T12:32:02.383Z,38.45
2023-03-29T12:34:58.247Z,40.12
2023-03-29T12:37:36.240Z,38.13
2023-03-29T12:40:15.206Z,37.03
2023-03-29T12:42:48.173Z,37.16
2023-03-29T12:45:20.989Z,37.73
2023-03-29T12:47:52.121Z,37.20
2023-03-29T12:50:29.017Z,38.17
2023-03-29T12:53:08.615Z,37.68
2023-03-29T12:55:50.507Z,38.29
2023-03-29T12:58:39.372Z,38.63
2023-03-29T13:01:10.598Z,39.33
2023-03-29T13:03:48.436Z,38.98
2023-03-29T13:06:30.249Z,39.90
2023-03-29T13:09:03.676Z,38.88
2023-03-29T13:11:35.520Z,39.05
2023-03-29T13:14:11.781Z,39.16
2023-03-29T13:16:42.222Z,40.07
2023-03-29T13:19:28.071Z,37.73
2023-03-29T13:22:08.559Z,40.16
2023-03-29T13:25:09.231Z,38.97
2023-03-29T13:27:46.459Z,41.88
2023-03-29T13:30:25.812Z,40.02
2023-03-29T13:33:07.436Z,39.61
2023-03-29T13:35:46.356Z,37.53
2023-03-29T13:38:20.795Z,39.77
2023-03-29T13:41:00.562Z,39.56
2023-03-29T13:43:34.479Z,38.78
2023-03-29T13:46:22.371Z,39.81
2023-03-29T13:48:59.229Z,38.68
2023-03-29T13:51:36.082Z,40.48
2023-03-29T13:54:14.309Z,40.17
2023-03-29T13:56:52.448Z,38.51
2023-03-29T13:59:26.654Z,37.34
2023-03-29T14:01:58.038Z,36.32
2023-03-29T14:04:29.183Z,35.58
2023-03-29T14:06:58.668Z,36.01
2023-03-29T14:09:33.051Z,35.36
2023-03-29T14:12:02.059Z,35.04
2023-03-29T14:14:32.878Z,35.17
2023-03-29T14:17:02.335Z,33.72
2023-03-29T14:19:33.100Z,34.83
2023-03-29T14:22:02.816Z,35.81
2023-03-29T14:24:39.368Z,33.92
2023-03-29T14:27:11.403Z,35.68
2023-03-29T14:29:39.340Z,35.46
2023-03-29T14:32:12.708Z,35.21
2023-03-29T14:34:41.122Z,35.06
2023-03-29T14:37:12.781Z,36.01
2023-03-29T14:39:42.744Z,36.23
2023-03-29T14:42:20.824Z,36.17
2023-03-29T14:44:50.852Z,37.33
2023-03-29T14:47:25.361Z,35.92
2023-03-29T14:49:54.542Z,35.64
2023-03-29T14:52:22.807Z,37.63
2023-03-29T14:54:56.636Z,36.88
2023-03-29T14:57:26.422Z,36.94
2023-03-29T14:59:56.018Z,36.08
2023-03-29T15:02:26.230Z,37.00
2023-03-29T15:04:59.598Z,37.22
2023-03-29T15:07:29.471Z,38.46
2023-03-29T15:10:00.702Z,38.24
2023-03-29T15:12:30.988Z,37.42
2023-03-29T15:15:00.388Z,37.89
2023-03-29T15:17:46.825Z,38.38
2023-03-29T15:20:23.506Z,37.58
2023-03-29T15:22:58.835Z,38.29
2023-03-29T15:25:33.340Z,39.56
2023-03-29T15:28:01.873Z,39.24
2023-03-29T15:30:34.841Z,39.12
2023-03-29T15:33:18.224Z,39.06
2023-03-29T15:35:51.333Z,39.40
2023-03-29T15:38:23.379Z,38.91
2023-03-29T15:40:57.083Z,39.16
2023-03-29T15:43:25.852Z,39.36
2023-03-29T15:45:53.812Z,39.35
2023-03-29T15:48:24.341Z,38.92
2023-03-29T15:50:53.105Z,39.62
2023-03-29T15:53:21.964Z,39.16
2023-03-29T15:55:52.486Z,40.12
2023-03-29T15:58:25.849Z,40.20
2023-03-29T16:00:59.266Z,39.19
2023-03-29T16:03:28.423Z,40.90
2023-03-29T16:05:57.487Z,41.70
2023-03-29T16:08:26.133Z,41.73
2023-03-29T16:10:54.044Z,42.29
2023-03-29T16:13:23.361Z,41.28
2023-03-29T16:15:51.294Z,40.13
2023-03-29T16:18:19.283Z,41.78
2023-03-29T16:20:47.182Z,42.19
2023-03-29T16:23:15.230Z,42.59
2023-03-29T16:25:43.470Z,43.04
2023-03-29T16:28:11.451Z,42.53
2023-03-29T16:30:41.019Z,42.41
2023-03-29T16:33:09.388Z,42.87
2023-03-29T16:35:40.040Z,44.04
2023-03-29T16:38:11.750Z,47.91
2023-03-29T16:40:39.645Z,49.47
2023-03-29T16:43:07.693Z,49.89
2023-03-29T16:45:36.361Z,49.69
2023-03-29T16:48:05.883Z,49.75
2023-03-29T16:50:33.982Z,49.66
2023-03-29T16:53:02.012Z,47.34
2023-03-29T16:55:29.901Z,46.81
2023-03-29T16:57:58.046Z,46.35
2023-03-29T17:00:26.043Z,44.53
2023-03-29T17:02:53.977Z,43.70
2023-03-29T17:05:23.373Z,44.62
2023-03-29T17:07:51.382Z,45.19
2023-03-29T17:10:19.596Z,45.24
2023-03-29T17:12:47.586Z,45.24
2023-03-29T17:15:15.992Z,47.75
2023-03-29T17:17:43.936Z,51.10
2023-03-29T17:20:12.978Z,52.94
2023-03-29T17:22:42.908Z,53.85
2023-03-29T17:25:11.263Z,53.70
2023-03-29T17:27:39.220Z,49.53
2023-03-29T17:30:08.480Z,50.31
2023-03-29T17:32:36.849Z,50.84
2023-03-29T17:35:05.144Z,51.61
2023-03-29T17:37:33.058Z,52.29
2023-03-29T17:40:09.446Z,52.04
2023-03-29T17:42:37.393Z,50.81
2023-03-29T17:45:06.276Z,50.74
2023-03-29T17:47:34.157Z,58.63
2023-03-29T17:50:02.133Z,63.64
2023-03-29T17:52:30.170Z,64.46
2023-03-29T17:54:58.113Z,60.14
2023-03-29T17:57:27.544Z,59.04
2023-03-29T17:59:55.540Z,53.79
2023-03-29T18:02:25.275Z,50.51
2023-03-29T18:04:53.438Z,50.44
2023-03-29T18:07:21.410Z,51.63
2023-03-29T18:09:49.397Z,54.10
2023-03-29T18:12:17.671Z,53.82
2023-03-29T18:14:46.977Z,53.82
2023-03-29T18:17:14.882Z,53.70
2023-03-29T18:19:42.839Z,53.36
2023-03-29T18:22:10.759Z,53.10
2023-03-29T18:24:38.691Z,52.26
2023-03-29T18:27:06.682Z,52.81
2023-03-29T18:29:34.616Z,52.64
2023-03-29T18:32:04.612Z,52.79
2023-03-29T18:34:33.427Z,52.94
2023-03-29T18:37:01.343Z,53.12
2023-03-29T18:39:29.521Z,53.01
2023-03-29T18:41:57.653Z,53.41
2023-03-29T18:44:27.423Z,53.94
2023-03-29T18:46:55.520Z,53.31
2023-03-29T18:49:25.099Z,51.40
2023-03-29T18:51:54.396Z,51.23
2023-03-29T18:54:22.588Z,51.36
2023-03-29T18:56:51.592Z,49.21
2023-03-29T18:59:19.820Z,50.49
2023-03-29T19:01:47.760Z,50.06
2023-03-29T19:04:15.860Z,49.32
2023-03-29T19:06:45.121Z,49.08
2023-03-29T19:09:13.038Z,48.50
2023-03-29T19:11:41.121Z,46.69
2023-03-29T19:14:09.316Z,47.03
2023-03-29T19:16:37.372Z,47.13
2023-03-29T19:19:07.041Z,48.14
2023-03-29T19:21:35.111Z,47.64
2023-03-29T19:24:07.778Z,47.23
2023-03-29T19:26:35.822Z,47.64
2023-03-29T19:29:03.737Z,45.90
2023-03-29T19:31:33.491Z,48.04
2023-03-29T19:34:01.541Z,51.74
2023-03-29T19:36:29.534Z,50.63
2023-03-29T19:38:57.549Z,50.28
2023-03-29T19:41:27.765Z,49.74
2023-03-29T19:43:55.783Z,48.13
2023-03-29T19:46:24.208Z,47.94
2023-03-29T19:48:55.651Z,48.06
2023-03-29T19:51:24.053Z,47.43
2023-03-29T19:53:52.843Z,47.50
2023-03-29T19:56:20.927Z,48.09
2023-03-29T19:58:50.700Z,48.87
2023-03-29T20:01:21.020Z,47.43
2023-03-29T20:03:50.143Z,47.90
2023-03-29T20:06:19.797Z,48.11
2023-03-29T20:08:48.578Z,48.35
2023-03-29T20:11:19.847Z,48.01
2023-03-29T20:13:47.809Z,48.59
2023-03-29T20:16:19.028Z,49.17
2023-03-29T20:18:47.453Z,49.56
2023-03-29T20:21:17.120Z,49.87
2023-03-29T20:23:45.536Z,49.73
2023-03-29T20:26:13.405Z,49.61
2023-03-29T20:28:41.342Z,49.18
2023-03-29T20:31:10.803Z,49.32
2023-03-29T20:33:41.381Z,49.85
2023-03-29T20:36:10.109Z,49.48
2023-03-29T20:38:38.392Z,49.62
2023-03-29T20:41:08.940Z,49.77
2023-03-29T20:43:38.938Z,49.77
2023-03-29T20:46:14.241Z,50.58
2023-03-29T20:48:46.151Z,50.56
2023-03-29T20:51:14.283Z,50.45
2023-03-29T20:53:43.005Z,51.37
2023-03-29T20:56:10.943Z,51.07
2023-03-29T20:58:42.271Z,50.31
2023-03-29T21:01:12.424Z,50.12
2023-03-29T21:03:40.510Z,50.10
2023-03-29T21:06:14.069Z,50.56
2023-03-29T21:08:42.678Z,50.41
2023-03-29T21:11:13.112Z,50.77
2023-03-29T21:13:41.123Z,50.43
2023-03-29T21:16:09.151Z,49.46
2023-03-29T21:18:38.631Z,49.06
2023-03-29T21:21:08.175Z,48.38
2023-03-29T21:23:38.008Z,49.88
2023-03-29T21:26:07.912Z,49.50
2023-03-29T21:28:36.007Z,49.27
2023-03-29T21:31:05.925Z,50.01
2023-03-29T21:33:35.229Z,49.40
2023-03-29T21:36:03.381Z,48.17
2023-03-29T21:38:31.419Z,48.24
2023-03-29T21:41:04.195Z,48.15
2023-03-29T21:43:32.816Z,48.35
2023-03-29T21:46:00.872Z,49.04
2023-03-29T21:48:29.098Z,47.89
2023-03-29T21:50:57.041Z,48.47
2023-03-29T21:53:25.884Z,48.00
2023-03-29T21:55:53.854Z,47.42
2023-03-29T21:58:23.250Z,47.95
2023-03-29T22:00:51.528Z,48.46
2023-03-29T22:03:19.649Z,48.98
2023-03-29T22:05:57.797Z,48.57
2023-03-29T22:08:27.213Z,47.94
2023-03-29T22:10:56.817Z,48.74
2023-03-29T22:13:28.701Z,47.80
2023-03-29T22:16:00.044Z,47.95
2023-03-29T22:18:30.203Z,47.70
2023-03-29T22:20:58.497Z,47.29
2023-03-29T22:23:26.451Z,47.36
2023-03-29T22:25:57.941Z,47.92
2023-03-29T22:28:27.296Z,47.35
2023-03-29T22:30:55.350Z,46.88
2023-03-29T22:33:23.248Z,47.00
2023-03-29T22:35:51.240Z,47.72
2023-03-29T22:38:19.163Z,46.60
2023-03-29T22:40:48.245Z,46.20
2023-03-29T22:43:16.108Z,45.98
2023-03-29T22:45:45.496Z,45.90
2023-03-29T22:48:13.412Z,46.61
2023-03-29T22:50:42.960Z,46.46
2023-03-29T22:53:11.661Z,46.71
2023-03-29T22:55:39.609Z,46.68
2023-03-29T22:58:07.500Z,46.94
2023-03-29T23:00:35.555Z,46.09
2023-03-29T23:03:05.185Z,46.25
2023-03-29T23:05:33.164Z,45.57
2023-03-29T23:08:01.188Z,45.95
2023-03-29T23:10:30.601Z,45.35
2023-03-29T23:13:08.604Z,45.84
2023-03-29T23:15:37.455Z,45.77
2023-03-29T23:18:07.049Z,45.20
2023-03-29T23:20:35.119Z,45.51
2023-03-29T23:23:03.046Z,45.94
2023-03-29T23:25:31.538Z,45.15
2023-03-29T23:27:59.684Z,45.54
2023-03-29T23:30:28.082Z,46.11
2023-03-29T23:32:58.281Z,45.50
2023-03-29T23:35:27.765Z,44.29
2023-03-29T23:37:55.728Z,45.38
2023-03-29T23:40:24.557Z,44.68
2023-03-29T23:42:53.078Z,45.53
2023-03-29T23:45:21.071Z,44.36
2023-03-29T23:47:49.014Z,45.52
2023-03-29T23:50:16.989Z,44.52
2023-03-29T23:52:47.215Z,45.43
2023-03-29T23:55:15.701Z,45.03
2023-03-29T23:57:43.803Z,44.60
